createdAt,value
2022-12-27T00:00:49.227Z,12.98
2022-12-27T00:02:21.620Z,10.75
2022-12-27T00:03:54.540Z,10.68
2022-12-27T00:05:26.688Z,13.70
2022-12-27T00:06:58.831Z,10.35
2022-12-27T00:08:30.907Z,9.52
2022-12-27T00:10:04.058Z,10.98
2022-12-27T00:11:36.395Z,10.18
2022-12-27T00:13:08.640Z,10.80
2022-12-27T00:14:40.752Z,10.50
2022-12-27T00:16:15.348Z,10.85
2022-12-27T00:17:47.510Z,9.85
2022-12-27T00:19:19.691Z,12.80
2022-12-27T00:20:58.478Z,11.70
2022-12-27T00:22:30.747Z,13.73
2022-12-27T00:24:02.987Z,11.68
2022-12-27T00:25:35.092Z,15.63
2022-12-27T00:27:07.281Z,17.92
2022-12-27T00:28:39.509Z,13.95
2022-12-27T00:30:12.404Z,14.90
2022-12-27T00:31:44.591Z,16.10
2022-12-27T00:33:16.672Z,14.90
2022-12-27T00:34:48.829Z,16.15
2022-12-27T00:36:23.299Z,22.25
2022-12-27T00:37:55.349Z,19.67
2022-12-27T00:39:27.476Z,17.85
2022-12-27T00:41:00.087Z,18.98
2022-12-27T00:42:32.283Z,21.02
2022-12-27T00:44:04.403Z,23.85
2022-12-27T00:45:36.559Z,17.83
2022-12-27T00:47:09.160Z,17.90
2022-12-27T00:48:41.781Z,18.70
2022-12-27T00:50:13.869Z,24.17
2022-12-27T00:51:45.976Z,26.58
2022-12-27T00:53:18.269Z,17.52
2022-12-27T00:54:50.339Z,17.58
2022-12-27T00:56:27.764Z,21.92
2022-12-27T00:57:59.844Z,28.33
2022-12-27T00:59:31.962Z,16.80
2022-12-27T01:01:13.397Z,27.23
2022-12-27T01:02:45.623Z,29.90
2022-12-27T01:04:18.137Z,20.65
2022-12-27T01:05:50.279Z,20.08
2022-12-27T01:07:22.407Z,18.35
2022-12-27T01:08:55.652Z,13.95
2022-12-27T01:10:27.817Z,14.18
2022-12-27T01:11:59.854Z,8.10
2022-12-27T01:13:32.443Z,8.53
2022-12-27T01:15:06.114Z,7.32
2022-12-27T01:16:38.653Z,2.50
2022-12-27T01:18:10.887Z,1.30
2022-12-27T01:19:43.011Z,1.65
2022-12-27T01:21:18.170Z,3.00
2022-12-27T01:22:50.240Z,2.45
2022-12-27T01:24:22.409Z,1.27
2022-12-27T01:26:07.024Z,0.88
2022-12-27T01:27:39.465Z,1.42
2022-12-27T01:29:13.359Z,1.02
2022-12-27T01:30:45.590Z,1.30
2022-12-27T01:32:17.643Z,1.92
2022-12-27T01:33:49.886Z,0.57
2022-12-27T01:35:21.975Z,0.75
2022-12-27T01:36:54.107Z,10.90
2022-12-27T01:38:26.207Z,0.75
2022-12-27T01:39:59.756Z,1.30
2022-12-27T01:43:38.034Z,5.90
2022-12-27T01:45:21.981Z,1.02
2022-12-27T01:46:54.832Z,0.70
2022-12-27T01:50:31.935Z,0.60
2022-12-27T01:52:05.019Z,0.90
2022-12-27T01:53:41.593Z,0.50
2022-12-27T01:55:19.471Z,0.90
2022-12-27T01:56:51.707Z,0.75
2022-12-27T01:59:02.624Z,0.70
2022-12-27T02:00:35.113Z,0.80
2022-12-27T02:02:08.194Z,0.88
2022-12-27T02:03:52.073Z,0.57
2022-12-27T02:05:25.862Z,0.95
2022-12-27T02:06:59.332Z,0.95
2022-12-27T02:08:41.427Z,0.88
2022-12-27T02:10:13.796Z,0.65
2022-12-27T02:11:51.896Z,0.75
2022-12-27T02:13:24.967Z,1.08
2022-12-27T02:14:58.865Z,0.80
2022-12-27T02:16:31.098Z,0.73
2022-12-27T02:18:03.405Z,0.88
2022-12-27T02:19:41.458Z,2.45
2022-12-27T02:21:25.610Z,1.88
2022-12-27T02:23:40.043Z,0.65
2022-12-27T02:27:08.084Z,1.40
2022-12-27T02:29:17.753Z,0.60
2022-12-27T02:30:58.383Z,0.90
2022-12-27T02:32:55.342Z,0.90
2022-12-27T02:34:56.003Z,0.65
2022-12-27T02:36:32.037Z,0.77
2022-12-27T02:38:12.597Z,0.60
2022-12-27T02:39:48.336Z,0.80
2022-12-27T02:41:38.982Z,0.80
2022-12-27T02:43:30.767Z,0.70
2022-12-27T02:45:23.311Z,1.00
2022-12-27T02:47:15.015Z,0.50
2022-12-27T02:49:17.221Z,0.85
2022-12-27T02:51:39.624Z,0.68
2022-12-27T02:53:33.615Z,1.30
2022-12-27T02:56:07.143Z,0.90
2022-12-27T02:57:51.200Z,0.80
2022-12-27T02:59:33.828Z,1.98
2022-12-27T03:02:08.984Z,11.10
2022-12-27T03:04:06.797Z,1.92
2022-12-27T03:06:39.284Z,1.17
2022-12-27T03:08:34.624Z,1.48
2022-12-27T03:10:40.217Z,0.45
2022-12-27T03:12:42.549Z,3.28
2022-12-27T03:14:42.171Z,0.90
2022-12-27T03:16:24.090Z,0.90
2022-12-27T03:18:10.974Z,2.35
2022-12-27T03:20:10.105Z,0.88
2022-12-27T03:22:05.379Z,1.10
2022-12-27T03:23:59.324Z,1.98
2022-12-27T03:25:33.839Z,1.65
2022-12-27T03:27:17.938Z,1.63
2022-12-27T03:29:10.386Z,2.53
2022-12-27T03:31:03.892Z,0.65
2022-12-27T03:34:38.329Z,1.88
2022-12-27T03:36:39.357Z,1.30
2022-12-27T03:38:13.996Z,1.48
2022-12-27T03:40:10.438Z,1.15
2022-12-27T03:42:21.579Z,5.32
2022-12-27T03:43:53.762Z,1.67
2022-12-27T03:45:51.363Z,1.40
2022-12-27T03:47:32.052Z,1.40
2022-12-27T03:49:39.855Z,1.17
2022-12-27T03:51:15.221Z,1.20
2022-12-27T03:53:00.138Z,0.77
2022-12-27T03:54:39.222Z,1.63
2022-12-27T03:56:11.821Z,2.13
2022-12-27T03:57:44.386Z,1.02
2022-12-27T03:59:16.469Z,1.13
2022-12-27T04:00:48.729Z,1.00
2022-12-27T04:02:21.074Z,1.80
2022-12-27T04:03:54.777Z,2.67
2022-12-27T04:05:26.837Z,1.27
2022-12-27T04:06:59.067Z,1.60
2022-12-27T04:08:49.375Z,1.38
2022-12-27T04:10:41.402Z,1.15
2022-12-27T04:12:32.141Z,1.05
2022-12-27T04:14:22.735Z,1.30
2022-12-27T04:16:13.342Z,1.83
2022-12-27T04:18:04.498Z,1.50
2022-12-27T04:19:55.170Z,2.22
2022-12-27T04:21:46.016Z,1.50
2022-12-27T04:23:36.513Z,1.42
2022-12-27T04:25:27.586Z,7.18
2022-12-27T04:27:19.095Z,1.10
2022-12-27T04:29:09.779Z,1.70
2022-12-27T04:31:00.411Z,1.10
2022-12-27T04:32:51.157Z,2.10
2022-12-27T04:34:41.919Z,2.13
2022-12-27T04:36:14.026Z,1.40
2022-12-27T04:37:46.116Z,1.45
2022-12-27T04:39:18.231Z,0.70
2022-12-27T04:41:08.780Z,0.90
2022-12-27T04:43:00.642Z,1.60
2022-12-27T04:44:51.365Z,1.15
2022-12-27T04:46:44.594Z,1.90
2022-12-27T04:48:35.540Z,1.63
2022-12-27T04:50:42.817Z,1.63
2022-12-27T04:52:39.517Z,2.80
2022-12-27T04:54:37.080Z,1.40
2022-12-27T04:56:09.242Z,1.95
2022-12-27T04:57:41.366Z,2.38
2022-12-27T04:59:32.035Z,1.08
2022-12-27T05:01:23.569Z,1.55
2022-12-27T05:02:56.608Z,1.33
2022-12-27T05:04:29.951Z,1.00
2022-12-27T05:06:02.890Z,1.30
2022-12-27T05:07:54.427Z,2.25
2022-12-27T05:09:45.158Z,1.17
2022-12-27T05:11:35.835Z,2.75
2022-12-27T05:13:29.971Z,1.20
2022-12-27T05:15:02.063Z,1.27
2022-12-27T05:16:41.060Z,1.55
2022-12-27T05:18:13.127Z,26.85
2022-12-27T05:19:45.332Z,2.55
2022-12-27T05:21:17.403Z,2.03
2022-12-27T05:23:08.677Z,1.30
2022-12-27T05:25:00.014Z,1.02
2022-12-27T05:26:32.672Z,1.77
2022-12-27T05:28:06.683Z,1.55
2022-12-27T05:29:38.806Z,1.10
2022-12-27T05:31:10.997Z,2.97
2022-12-27T05:32:43.207Z,1.67
2022-12-27T05:34:15.263Z,1.43
2022-12-27T05:35:47.439Z,10.20
2022-12-27T05:37:19.493Z,1.60
2022-12-27T05:38:52.077Z,0.90
2022-12-27T05:40:25.187Z,1.40
2022-12-27T05:41:57.261Z,2.83
2022-12-27T05:43:29.700Z,2.43
2022-12-27T05:45:01.771Z,1.25
2022-12-27T05:46:33.932Z,0.87
2022-12-27T05:48:06.307Z,2.10
2022-12-27T05:49:38.352Z,1.23
2022-12-27T05:51:10.454Z,1.10
2022-12-27T05:52:42.540Z,1.43
2022-12-27T05:54:14.676Z,1.07
2022-12-27T05:55:54.876Z,1.38
2022-12-27T05:57:27.129Z,1.45
2022-12-27T05:58:59.172Z,1.67
2022-12-27T06:00:31.515Z,1.13
2022-12-27T06:02:03.700Z,3.88
2022-12-27T06:03:36.625Z,2.03
2022-12-27T06:05:10.185Z,1.10
2022-12-27T06:06:45.215Z,3.42
2022-12-27T06:08:17.418Z,2.08
2022-12-27T06:09:49.633Z,1.33
2022-12-27T06:11:22.702Z,1.08
2022-12-27T06:12:54.835Z,1.73
2022-12-27T06:14:26.889Z,1.23
2022-12-27T06:16:01.232Z,1.17
2022-12-27T06:17:33.465Z,1.25
2022-12-27T06:19:05.521Z,0.98
2022-12-27T06:20:37.556Z,1.40
2022-12-27T06:22:09.683Z,2.63
2022-12-27T06:23:44.727Z,3.80
2022-12-27T06:25:17.071Z,0.88
2022-12-27T06:26:50.064Z,2.42
2022-12-27T06:28:22.149Z,2.05
2022-12-27T06:29:54.237Z,1.30
2022-12-27T06:31:27.232Z,1.25
2022-12-27T06:34:31.376Z,2.55
2022-12-27T06:36:11.858Z,7.43
2022-12-27T06:37:44.113Z,4.35
2022-12-27T06:39:19.544Z,1.20
2022-12-27T06:40:51.623Z,1.45
2022-12-27T06:42:23.850Z,1.10
2022-12-27T06:43:57.559Z,1.73
2022-12-27T06:45:29.646Z,1.20
2022-12-27T06:47:02.666Z,2.60
2022-12-27T06:50:07.211Z,2.45
2022-12-27T06:51:39.347Z,1.10
2022-12-27T06:53:11.414Z,0.77
2022-12-27T06:54:43.563Z,0.98
2022-12-27T06:56:18.224Z,1.13
2022-12-27T06:57:51.562Z,1.27
2022-12-27T06:59:24.346Z,0.95
2022-12-27T07:00:56.488Z,0.70
2022-12-27T07:02:28.804Z,0.98
2022-12-27T07:04:01.170Z,0.80
2022-12-27T07:05:35.299Z,1.15
2022-12-27T07:07:12.049Z,1.20
2022-12-27T07:08:48.533Z,2.15
2022-12-27T07:10:20.982Z,0.82
2022-12-27T07:11:54.116Z,0.80
2022-12-27T07:13:26.328Z,1.85
2022-12-27T07:14:58.474Z,0.93
2022-12-27T07:16:31.026Z,3.53
2022-12-27T07:18:03.125Z,3.60
2022-12-27T07:19:35.208Z,1.17
2022-12-27T07:21:09.080Z,1.60
2022-12-27T07:22:41.210Z,1.85
2022-12-27T07:24:13.432Z,2.28
2022-12-27T07:25:45.500Z,1.00
2022-12-27T07:27:17.680Z,1.45
2022-12-27T07:28:54.373Z,1.38
2022-12-27T07:30:26.677Z,1.50
2022-12-27T07:31:58.854Z,1.25
2022-12-27T07:33:31.528Z,8.10
2022-12-27T07:35:03.872Z,2.47
2022-12-27T07:36:39.101Z,2.22
2022-12-27T07:38:11.258Z,2.40
2022-12-27T07:39:43.342Z,1.83
2022-12-27T07:41:16.480Z,1.88
2022-12-27T07:42:48.779Z,1.70
2022-12-27T07:44:20.941Z,1.75
2022-12-27T07:45:53.069Z,1.38
2022-12-27T07:47:25.232Z,1.75
2022-12-27T07:48:58.231Z,2.03
2022-12-27T07:52:02.353Z,1.00
2022-12-27T07:53:35.433Z,1.38
2022-12-27T07:55:07.924Z,1.35
2022-12-27T07:56:40.040Z,1.13
2022-12-27T07:58:12.171Z,2.38
2022-12-27T07:59:44.839Z,1.33
2022-12-27T08:01:20.852Z,1.27
2022-12-27T08:02:53.076Z,2.17
2022-12-27T08:04:25.293Z,2.78
2022-12-27T08:05:57.453Z,1.48
2022-12-27T08:07:29.628Z,1.15
2022-12-27T08:09:05.726Z,0.98
2022-12-27T08:10:37.883Z,2.40
2022-12-27T08:12:10.790Z,3.97
2022-12-27T08:15:14.844Z,4.25
2022-12-27T08:16:46.935Z,1.08
2022-12-27T08:18:19.068Z,2.38
2022-12-27T08:19:51.901Z,2.05
2022-12-27T08:21:24.143Z,1.20
2022-12-27T08:22:56.231Z,0.60
2022-12-27T08:24:28.389Z,1.25
2022-12-27T08:26:00.501Z,1.77
2022-12-27T08:27:32.748Z,1.67
2022-12-27T08:29:04.887Z,3.75
2022-12-27T08:30:37.325Z,2.45
2022-12-27T08:32:09.550Z,1.30
2022-12-27T08:33:42.194Z,1.90
2022-12-27T08:35:51.685Z,1.98
2022-12-27T08:37:06.986Z,4.25
2022-12-27T08:38:39.242Z,1.35
2022-12-27T08:40:11.704Z,1.88
2022-12-27T08:41:45.168Z,4.47
2022-12-27T08:43:17.276Z,2.10
2022-12-27T08:44:49.401Z,0.80
2022-12-27T08:46:21.761Z,1.75
2022-12-27T08:47:59.604Z,1.08
2022-12-27T08:49:31.972Z,0.85
2022-12-27T08:51:11.930Z,1.73
2022-12-27T08:52:45.135Z,1.02
2022-12-27T08:54:17.294Z,3.25
2022-12-27T08:55:49.498Z,1.97
2022-12-27T08:57:21.708Z,0.90
2022-12-27T08:58:53.795Z,2.50
2022-12-27T09:00:27.125Z,5.38
2022-12-27T09:01:59.335Z,1.05
2022-12-27T09:03:31.740Z,1.20
2022-12-27T09:05:04.105Z,3.05
2022-12-27T09:06:36.336Z,1.00
2022-12-27T09:08:08.405Z,1.35
2022-12-27T09:09:40.546Z,9.82
2022-12-27T09:11:21.277Z,1.85
2022-12-27T09:12:53.465Z,1.27
2022-12-27T09:14:25.520Z,0.88
2022-12-27T09:15:57.591Z,2.50
2022-12-27T09:17:29.697Z,1.30
2022-12-27T09:19:02.478Z,1.45
2022-12-27T09:20:34.577Z,1.15
2022-12-27T09:22:06.811Z,0.80
2022-12-27T09:23:39.658Z,0.93
2022-12-27T09:25:11.809Z,2.22
2022-12-27T09:26:43.971Z,6.10
2022-12-27T09:28:16.167Z,4.60
2022-12-27T09:29:48.666Z,0.88
2022-12-27T09:31:22.506Z,1.38
2022-12-27T09:32:54.704Z,2.65
2022-12-27T09:34:26.890Z,1.23
2022-12-27T09:36:08.284Z,1.80
2022-12-27T09:37:40.467Z,2.97
2022-12-27T09:39:13.956Z,2.22
2022-12-27T09:40:58.205Z,1.30
2022-12-27T09:42:57.772Z,0.73
2022-12-27T09:44:37.238Z,6.43
2022-12-27T09:46:22.302Z,0.70
2022-12-27T09:48:06.101Z,0.90
2022-12-27T09:49:52.568Z,1.95
2022-12-27T09:51:49.193Z,1.63
2022-12-27T09:53:53.154Z,1.67
2022-12-27T09:55:38.364Z,0.75
2022-12-27T09:57:41.081Z,0.65
2022-12-27T09:59:25.402Z,0.68
2022-12-27T10:00:57.462Z,1.10
2022-12-27T10:02:29.747Z,2.97
2022-12-27T10:04:03.633Z,0.80
2022-12-27T10:05:38.173Z,7.05
2022-12-27T10:07:33.097Z,1.70
2022-12-27T10:09:23.390Z,1.00
2022-12-27T10:11:01.262Z,0.50
2022-12-27T10:13:03.909Z,0.70
2022-12-27T10:14:51.053Z,2.03
2022-12-27T10:16:28.729Z,0.55
2022-12-27T10:18:12.674Z,1.73
2022-12-27T10:19:49.508Z,0.85
2022-12-27T10:21:27.219Z,1.15
2022-12-27T10:23:06.646Z,1.25
2022-12-27T10:24:47.792Z,1.20
2022-12-27T10:26:21.141Z,0.70
2022-12-27T10:28:01.462Z,1.70
2022-12-27T10:29:34.204Z,1.45
2022-12-27T10:31:06.581Z,1.10
2022-12-27T10:32:38.805Z,2.75
2022-12-27T10:34:15.808Z,0.63
2022-12-27T10:35:48.698Z,1.45
2022-12-27T10:37:20.983Z,1.17
2022-12-27T10:38:53.541Z,0.77
2022-12-27T10:40:39.582Z,7.13
2022-12-27T10:42:12.114Z,1.75
2022-12-27T10:43:48.101Z,2.05
2022-12-27T10:45:36.462Z,0.57
2022-12-27T10:47:08.855Z,1.73
2022-12-27T10:49:11.361Z,1.52
2022-12-27T10:50:33.632Z,1.05
2022-12-27T10:52:15.767Z,1.25
2022-12-27T10:53:48.012Z,0.90
2022-12-27T10:55:38.257Z,1.42
2022-12-27T10:57:29.117Z,2.05
2022-12-27T10:59:17.984Z,4.05
2022-12-27T11:00:57.608Z,1.60
2022-12-27T11:02:29.758Z,1.38
2022-12-27T11:04:22.181Z,2.05
2022-12-27T11:06:03.032Z,2.80
2022-12-27T11:07:35.225Z,2.30
2022-12-27T11:09:26.787Z,1.23
2022-12-27T11:11:15.478Z,1.88
2022-12-27T11:12:59.428Z,5.68
2022-12-27T11:14:31.568Z,3.60
2022-12-27T11:16:04.094Z,1.65
2022-12-27T11:17:42.115Z,1.80
2022-12-27T11:19:32.331Z,1.50
2022-12-27T11:21:04.545Z,8.13
2022-12-27T11:23:03.629Z,5.13
2022-12-27T11:24:36.081Z,1.50
2022-12-27T11:26:08.228Z,1.35
2022-12-27T11:27:49.499Z,1.95
2022-12-27T11:29:25.174Z,2.17
2022-12-27T11:31:02.603Z,1.00
2022-12-27T11:32:34.799Z,3.22
2022-12-27T11:34:29.260Z,1.58
2022-12-27T11:36:01.565Z,1.33
2022-12-27T11:37:39.983Z,2.25
2022-12-27T11:39:47.473Z,2.08
2022-12-27T11:41:23.224Z,2.05
2022-12-27T11:43:09.562Z,4.15
2022-12-27T11:44:46.789Z,2.22
2022-12-27T11:46:43.157Z,1.48
2022-12-27T11:48:26.313Z,3.08
2022-12-27T11:50:14.605Z,1.50
2022-12-27T11:52:18.882Z,3.25
2022-12-27T11:54:26.479Z,2.78
2022-12-27T11:56:04.548Z,1.73
2022-12-27T11:57:42.394Z,2.42
2022-12-27T11:59:32.838Z,4.40
2022-12-27T12:01:41.949Z,3.88
2022-12-27T12:03:26.365Z,5.10
2022-12-27T12:05:16.540Z,7.35
2022-12-27T12:06:48.587Z,3.72
2022-12-27T12:08:41.925Z,4.97
2022-12-27T12:10:27.415Z,3.28
2022-12-27T12:12:17.865Z,1.55
2022-12-27T12:13:55.553Z,2.83
2022-12-27T12:15:46.558Z,3.17
2022-12-27T12:17:46.324Z,1.48
2022-12-27T12:19:37.207Z,1.33
2022-12-27T12:21:31.963Z,2.20
2022-12-27T12:23:26.839Z,1.27
2022-12-27T12:25:22.888Z,1.38
2022-12-27T12:27:06.743Z,2.65
2022-12-27T12:29:20.221Z,3.10
2022-12-27T12:31:23.418Z,3.67
2022-12-27T12:33:10.819Z,2.30
2022-12-27T12:34:57.231Z,5.68
2022-12-27T12:36:38.100Z,1.67
2022-12-27T12:38:38.747Z,2.85
2022-12-27T12:40:37.437Z,2.72
2022-12-27T12:42:18.917Z,3.20
2022-12-27T12:44:10.538Z,1.25
2022-12-27T12:45:48.694Z,2.90
2022-12-27T12:47:39.023Z,1.27
2022-12-27T12:49:22.936Z,1.23
2022-12-27T12:51:28.619Z,1.42
2022-12-27T12:53:07.250Z,2.47
2022-12-27T12:54:50.454Z,1.17
2022-12-27T12:56:41.894Z,2.00
2022-12-27T12:58:37.783Z,2.30
2022-12-27T13:00:38.722Z,3.42
2022-12-27T13:02:34.578Z,1.67
2022-12-27T13:04:36.081Z,1.63
2022-12-27T13:06:14.150Z,2.35
2022-12-27T13:08:15.716Z,3.10
2022-12-27T13:10:20.059Z,1.92
2022-12-27T13:12:04.313Z,1.77
2022-12-27T13:13:45.268Z,4.15
2022-12-27T13:15:37.868Z,10.00
2022-12-27T13:17:19.425Z,3.60
2022-12-27T13:19:23.842Z,2.33
2022-12-27T13:21:00.304Z,6.70
2022-12-27T13:22:50.807Z,2.03
2022-12-27T13:24:42.396Z,1.48
2022-12-27T13:26:20.549Z,2.00
2022-12-27T13:28:24.994Z,1.85
2022-12-27T13:30:26.409Z,3.95
2022-12-27T13:32:07.507Z,3.95
2022-12-27T13:34:02.622Z,2.22
2022-12-27T13:35:59.710Z,1.15
2022-12-27T13:38:03.788Z,2.60
2022-12-27T13:41:50.108Z,2.63
2022-12-27T13:44:10.175Z,2.00
2022-12-27T13:46:09.734Z,2.08
2022-12-27T13:47:56.941Z,4.00
2022-12-27T13:50:13.478Z,1.35
2022-12-27T13:51:50.206Z,3.10
2022-12-27T13:53:44.331Z,1.70
2022-12-27T13:55:40.402Z,2.03
2022-12-27T13:57:31.176Z,1.83
2022-12-27T13:59:47.139Z,1.20
2022-12-27T14:01:32.407Z,1.38
2022-12-27T14:03:49.098Z,1.23
2022-12-27T14:05:45.615Z,1.30
2022-12-27T14:07:52.931Z,1.90
2022-12-27T14:10:00.537Z,4.53
2022-12-27T14:12:05.431Z,1.88
2022-12-27T14:13:43.557Z,1.58
2022-12-27T14:15:22.293Z,1.08
2022-12-27T14:17:03.523Z,3.05
2022-12-27T14:18:38.627Z,2.75
2022-12-27T14:20:36.674Z,1.83
2022-12-27T14:22:20.680Z,2.80
2022-12-27T14:24:02.023Z,4.13
2022-12-27T14:25:45.989Z,2.45
2022-12-27T14:27:47.138Z,1.63
2022-12-27T14:29:56.623Z,3.55
2022-12-27T14:31:54.087Z,1.38
2022-12-27T14:33:47.469Z,1.88
2022-12-27T14:35:52.058Z,0.90
2022-12-27T14:37:43.048Z,2.20
2022-12-27T14:39:44.333Z,2.00
2022-12-27T14:41:42.804Z,2.20
2022-12-27T14:43:39.449Z,2.20
2022-12-27T14:45:42.755Z,3.13
2022-12-27T14:47:48.612Z,2.08
2022-12-27T14:49:49.172Z,2.15
2022-12-27T14:52:06.131Z,2.72
2022-12-27T14:54:02.647Z,2.35
2022-12-27T14:56:16.274Z,2.72
2022-12-27T14:58:03.371Z,4.53
2022-12-27T14:59:54.340Z,2.38
2022-12-27T15:01:44.691Z,2.95
2022-12-27T15:03:21.488Z,2.85
2022-12-27T15:05:10.222Z,3.00
2022-12-27T15:07:10.140Z,3.85
2022-12-27T15:09:14.048Z,2.15
2022-12-27T15:11:05.034Z,2.92
2022-12-27T15:12:46.227Z,1.52
2022-12-27T15:14:23.885Z,1.90
2022-12-27T15:16:33.727Z,3.35
2022-12-27T15:18:05.924Z,6.25
2022-12-27T15:19:59.625Z,2.67
2022-12-27T15:23:29.419Z,2.63
2022-12-27T15:25:32.227Z,3.30
2022-12-27T15:27:32.418Z,3.95
2022-12-27T15:29:17.893Z,2.50
2022-12-27T15:30:59.320Z,3.10
2022-12-27T15:32:46.998Z,2.50
2022-12-27T15:34:59.045Z,4.35
2022-12-27T15:36:46.645Z,2.25
2022-12-27T15:38:39.690Z,2.20
2022-12-27T15:40:32.945Z,3.03
2022-12-27T15:42:11.809Z,2.53
2022-12-27T15:44:01.976Z,2.30
2022-12-27T15:45:53.246Z,3.50
2022-12-27T15:47:37.203Z,1.88
2022-12-27T15:49:36.758Z,5.78
2022-12-27T15:51:14.892Z,4.55
2022-12-27T15:52:53.317Z,14.98
2022-12-27T15:54:53.683Z,4.00
2022-12-27T15:57:10.071Z,4.53
2022-12-27T15:58:42.704Z,2.60
2022-12-27T16:00:17.566Z,5.70
2022-12-27T16:02:30.144Z,6.93
2022-12-27T16:04:47.934Z,3.92
2022-12-27T16:06:35.740Z,5.40
2022-12-27T16:08:08.008Z,4.03
2022-12-27T16:09:40.284Z,2.50
2022-12-27T16:11:13.489Z,4.95
2022-12-27T16:12:47.915Z,2.53
2022-12-27T16:14:29.059Z,7.40
2022-12-27T16:16:01.711Z,9.95
2022-12-27T16:17:46.134Z,2.30
2022-12-27T16:19:50.780Z,3.03
2022-12-27T16:21:25.220Z,4.05
2022-12-27T16:23:03.817Z,3.67
2022-12-27T16:24:41.879Z,4.63
2022-12-27T16:26:17.192Z,2.10
2022-12-27T16:28:20.370Z,3.20
2022-12-27T16:29:52.619Z,3.95
2022-12-27T16:31:28.333Z,8.18
2022-12-27T16:33:01.124Z,3.60
2022-12-27T16:34:33.279Z,2.70
2022-12-27T16:36:34.504Z,4.60
2022-12-27T16:38:21.983Z,5.05
2022-12-27T16:40:15.347Z,2.97
2022-12-27T16:41:50.144Z,3.55
2022-12-27T16:44:04.997Z,5.75
2022-12-27T16:45:40.081Z,3.63
2022-12-27T16:47:44.583Z,3.10
2022-12-27T16:49:16.786Z,4.55
2022-12-27T16:51:21.277Z,5.32
2022-12-27T16:53:18.244Z,4.68
2022-12-27T16:55:17.147Z,4.68
2022-12-27T16:56:49.779Z,4.57
2022-12-27T16:58:23.647Z,4.47
2022-12-27T17:00:02.074Z,6.05
2022-12-27T17:01:36.821Z,3.60
2022-12-27T17:03:35.483Z,2.95
2022-12-27T17:05:17.013Z,2.80
2022-12-27T17:06:54.605Z,4.97
2022-12-27T17:08:28.794Z,3.72
2022-12-27T17:10:40.077Z,4.10
2022-12-27T17:12:17.672Z,4.63
2022-12-27T17:13:57.292Z,5.00
2022-12-27T17:15:30.621Z,6.68
2022-12-27T17:17:18.784Z,3.83
2022-12-27T17:18:58.830Z,4.05
2022-12-27T17:20:31.487Z,2.28
2022-12-27T17:22:06.474Z,3.13
2022-12-27T17:23:45.942Z,8.43
2022-12-27T17:25:22.903Z,6.00
2022-12-27T17:27:01.189Z,7.80
2022-12-27T17:28:45.845Z,9.70
2022-12-27T17:30:26.858Z,4.85
2022-12-27T17:32:04.882Z,2.85
2022-12-27T17:33:57.264Z,6.20
2022-12-27T17:35:44.568Z,5.80
2022-12-27T17:37:41.143Z,2.90
2022-12-27T17:39:23.655Z,2.40
2022-12-27T17:41:11.983Z,3.00
2022-12-27T17:43:42.761Z,2.90
2022-12-27T17:46:02.532Z,3.92
2022-12-27T17:48:02.217Z,4.85
2022-12-27T17:49:34.626Z,3.22
2022-12-27T17:51:13.165Z,2.95
2022-12-27T17:53:31.222Z,12.98
2022-12-27T17:55:46.353Z,2.80
2022-12-27T17:57:38.399Z,6.05
2022-12-27T17:59:24.005Z,5.45
2022-12-27T18:00:59.276Z,5.82
2022-12-27T18:02:35.850Z,5.05
2022-12-27T18:04:08.348Z,3.80
2022-12-27T18:05:43.467Z,9.43
2022-12-27T18:07:22.147Z,5.13
2022-12-27T18:08:54.404Z,3.03
2022-12-27T18:10:28.012Z,4.90
2022-12-27T18:12:02.216Z,7.50
2022-12-27T18:13:39.202Z,4.90
2022-12-27T18:15:18.130Z,8.10
2022-12-27T18:16:50.744Z,12.25
2022-12-27T18:18:32.514Z,6.50
2022-12-27T18:20:26.729Z,5.22
2022-12-27T18:22:01.609Z,7.22
2022-12-27T18:23:42.769Z,1.70
2022-12-27T18:25:25.781Z,7.00
2022-12-27T18:27:05.052Z,3.50
2022-12-27T18:28:37.344Z,3.72
2022-12-27T18:30:11.391Z,6.88
2022-12-27T18:31:52.700Z,5.65
2022-12-27T18:33:39.251Z,6.70
2022-12-27T18:35:24.003Z,4.15
2022-12-27T18:37:05.085Z,4.07
2022-12-27T18:38:46.729Z,3.55
2022-12-27T18:40:22.043Z,5.63
2022-12-27T18:41:55.040Z,2.38
2022-12-27T18:43:27.314Z,10.02
2022-12-27T18:45:04.665Z,5.75
2022-12-27T18:46:38.771Z,4.50
2022-12-27T18:48:14.087Z,4.75
2022-12-27T18:49:48.643Z,9.98
2022-12-27T18:51:20.950Z,5.70
2022-12-27T18:53:08.229Z,4.78
2022-12-27T18:54:40.850Z,6.53
2022-12-27T18:56:16.152Z,2.88
2022-12-27T18:57:48.549Z,4.55
2022-12-27T18:59:40.201Z,4.80
2022-12-27T19:01:24.238Z,3.83
2022-12-27T19:03:14.128Z,5.40
2022-12-27T19:05:13.889Z,4.30
2022-12-27T19:06:57.970Z,8.10
2022-12-27T19:08:37.801Z,6.20
2022-12-27T19:10:16.952Z,3.95
2022-12-27T19:12:01.955Z,4.72
2022-12-27T19:13:43.261Z,10.18
2022-12-27T19:15:27.991Z,5.03
2022-12-27T19:17:04.052Z,5.07
2022-12-27T19:18:39.175Z,14.32
2022-12-27T19:20:20.831Z,6.88
2022-12-27T19:21:52.976Z,8.50
2022-12-27T19:23:29.968Z,4.03
2022-12-27T19:25:06.784Z,4.18
2022-12-27T19:26:38.953Z,6.07
2022-12-27T19:28:10.997Z,7.97
2022-12-27T19:29:51.755Z,5.60
2022-12-27T19:31:23.973Z,4.35
2022-12-27T19:32:56.376Z,12.95
2022-12-27T19:34:39.425Z,6.95
2022-12-27T19:36:11.667Z,4.10
2022-12-27T19:37:43.767Z,4.97
2022-12-27T19:39:22.557Z,4.57
2022-12-27T19:41:03.296Z,5.28
2022-12-27T19:42:36.194Z,6.22
2022-12-27T19:44:10.930Z,14.23
2022-12-27T19:45:43.081Z,10.52
2022-12-27T19:47:15.648Z,6.45
2022-12-27T19:49:15.899Z,6.88
2022-12-27T19:50:46.617Z,4.82
2022-12-27T19:52:24.119Z,6.22
2022-12-27T19:53:58.235Z,4.55
2022-12-27T19:57:02.425Z,4.28
2022-12-27T19:58:34.967Z,3.78
2022-12-27T20:00:17.230Z,4.65
2022-12-27T20:01:49.981Z,3.90
2022-12-27T20:03:22.377Z,4.68
2022-12-27T20:04:54.615Z,4.30
2022-12-27T20:06:28.393Z,5.32
2022-12-27T20:08:00.707Z,6.25
2022-12-27T20:09:32.828Z,8.30
2022-12-27T20:11:07.238Z,7.50
2022-12-27T20:12:39.436Z,6.43
2022-12-27T20:14:13.223Z,11.25
2022-12-27T20:15:45.407Z,4.80
2022-12-27T20:17:17.585Z,5.18
2022-12-27T20:18:49.797Z,9.07
2022-12-27T20:20:22.569Z,6.13
2022-12-27T20:21:54.688Z,6.32
2022-12-27T20:23:26.909Z,5.03
2022-12-27T20:24:59.024Z,3.28
2022-12-27T20:26:31.241Z,4.70
2022-12-27T20:28:03.954Z,6.50
2022-12-27T20:29:36.180Z,6.95
2022-12-27T20:31:14.949Z,4.88
2022-12-27T20:32:47.159Z,7.50
2022-12-27T20:34:19.252Z,5.50
2022-12-27T20:35:56.936Z,5.65
2022-12-27T20:37:29.041Z,8.40
2022-12-27T20:39:01.204Z,5.47
2022-12-27T20:40:33.449Z,4.03
2022-12-27T20:42:05.772Z,5.60
2022-12-27T20:43:38.101Z,6.03
2022-12-27T20:45:10.825Z,8.82
2022-12-27T20:46:42.963Z,10.18
2022-12-27T20:48:15.406Z,11.77
2022-12-27T20:49:48.008Z,4.63
2022-12-27T20:51:22.488Z,5.38
2022-12-27T20:52:55.015Z,5.07
2022-12-27T20:54:27.386Z,9.48
2022-12-27T20:56:03.548Z,4.45
2022-12-27T20:57:36.276Z,3.50
2022-12-27T20:59:08.446Z,5.78
2022-12-27T21:00:41.481Z,5.30
2022-12-27T21:02:14.438Z,8.48
2022-12-27T21:03:47.316Z,6.97
2022-12-27T21:05:19.586Z,4.90
2022-12-27T21:06:51.732Z,9.98
2022-12-27T21:08:23.791Z,7.80
2022-12-27T21:09:55.868Z,4.27
2022-12-27T21:11:32.666Z,5.87
2022-12-27T21:13:05.041Z,4.10
2022-12-27T21:14:38.708Z,6.68
2022-12-27T21:16:16.435Z,4.47
2022-12-27T21:17:48.644Z,6.35
2022-12-27T21:19:20.883Z,7.03
2022-12-27T21:20:52.976Z,5.23
2022-12-27T21:22:25.168Z,4.93
2022-12-27T21:23:58.704Z,5.95
2022-12-27T21:25:30.889Z,6.50
2022-12-27T21:27:02.979Z,7.63
2022-12-27T21:28:35.857Z,3.65
2022-12-27T21:30:08.855Z,5.40
2022-12-27T21:31:41.040Z,8.10
2022-12-27T21:33:13.146Z,4.43
2022-12-27T21:34:45.363Z,3.53
2022-12-27T21:36:25.521Z,4.90
2022-12-27T21:37:57.695Z,3.95
2022-12-27T21:39:30.433Z,4.10
2022-12-27T21:41:05.620Z,9.13
2022-12-27T21:42:37.809Z,6.22
2022-12-27T21:44:10.087Z,6.60
2022-12-27T21:45:42.131Z,5.10
2022-12-27T21:47:14.315Z,5.00
2022-12-27T21:48:47.196Z,11.88
2022-12-27T21:50:19.508Z,8.93
2022-12-27T21:51:51.785Z,5.37
2022-12-27T21:53:24.495Z,5.55
2022-12-27T21:54:56.583Z,3.65
2022-12-27T21:56:30.153Z,5.32
2022-12-27T21:58:02.583Z,3.83
2022-12-27T21:59:34.718Z,15.73
2022-12-27T22:01:17.768Z,8.68
2022-12-27T22:02:50.514Z,4.70
2022-12-27T22:04:22.729Z,4.30
2022-12-27T22:05:54.901Z,4.00
2022-12-27T22:07:26.923Z,7.63
2022-12-27T22:09:08.024Z,6.03
2022-12-27T22:10:40.079Z,6.47
2022-12-27T22:12:12.288Z,7.18
2022-12-27T22:13:44.833Z,5.80
2022-12-27T22:15:17.144Z,3.85
2022-12-27T22:16:49.257Z,8.20
2022-12-27T22:18:21.493Z,3.22
2022-12-27T22:19:53.613Z,5.80
2022-12-27T22:21:29.585Z,4.65
2022-12-27T22:23:01.705Z,7.63
2022-12-27T22:24:33.842Z,5.57
2022-12-27T22:26:10.112Z,6.37
2022-12-27T22:27:42.287Z,5.35
2022-12-27T22:29:14.423Z,7.10
2022-12-27T22:30:46.647Z,8.40
2022-12-27T22:32:18.876Z,4.88
2022-12-27T22:33:51.587Z,5.07
2022-12-27T22:35:23.613Z,14.10
2022-12-27T22:36:56.069Z,4.63
2022-12-27T22:38:30.833Z,5.18